| time (UTC) | temp C | wind direction | speed KPH | gust KPH | rain 1hr cm | rain 24hr cm | rain mn cm | humidity % | barometer mb |
| 20260510190011 | 18 | 58 | 3.2 | 11.3 | 0.00 | 0.13 | 0.13 | 45 | 1019.1 |
| 20260510184507 | 18 | 90 | 3.2 | 14.5 | 0.00 | 0.13 | 0.13 | 43 | 1018.9 |
| 20260510183057 | 18 | 11 | 3.2 | 14.5 | 0.00 | 0.13 | 0.13 | 41 | 1018.8 |
| 20260510181547 | 17 | 30 | 3.2 | 11.3 | 0.00 | 0.13 | 0.13 | 42 | 1018.8 |
| 20260510180034 | 17 | 60 | 1.6 | 11.3 | 0.00 | 0.13 | 0.13 | 40 | 1018.7 |
| 20260510174529 | 17 | 91 | 3.2 | 11.3 | 0.00 | 0.13 | 0.13 | 41 | 1018.8 |
| 20260510173011 | 17 | 351 | 3.2 | 9.7 | 0.00 | 0.13 | 0.13 | 40 | 1018.9 |
| 20260510171515 | 17 | 19 | 4.8 | 12.9 | 0.00 | 0.13 | 0.13 | 39 | 1019.0 |
| 20260510170110 | 17 | 333 | 3.2 | 16.1 | 0.00 | 0.13 | 0.13 | 38 | 1018.9 |
| 20260510164608 | 17 | 37 | 8.0 | 16.1 | 0.00 | 0.13 | 0.13 | 37 | 1018.9 |
| 20260510163035 | 18 | 42 | 9.7 | 17.7 | 0.00 | 0.13 | 0.13 | 34 | 1018.9 |
| 20260510161532 | 17 | 27 | 8.0 | 17.7 | 0.00 | 0.13 | 0.13 | 36 | 1019.0 |
| 20260510160012 | 17 | 16 | 6.4 | 16.1 | 0.00 | 0.13 | 0.13 | 42 | 1019.1 |
| 20260510154509 | 17 | 64 | 4.8 | 12.9 | 0.00 | 0.13 | 0.13 | 42 | 1019.0 |
| 20260510153056 | 17 | 8 | 4.8 | 11.3 | 0.00 | 0.13 | 0.13 | 46 | 1019.0 |
| 20260510151555 | 17 | 329 | 4.8 | 17.7 | 0.00 | 0.13 | 0.13 | 45 | 1018.7 |
| 20260510150053 | 17 | 356 | 4.8 | 12.9 | 0.00 | 0.13 | 0.13 | 49 | 1018.5 |
| 20260510144603 | 17 | 326 | 1.6 | 9.7 | 0.00 | 0.13 | 0.13 | 52 | 1018.3 |
| 20260510143045 | 16 | 335 | 4.8 | 12.9 | 0.00 | 0.13 | 0.13 | 53 | 1018.2 |
| 20260510141540 | 16 | 329 | 3.2 | 12.9 | 0.00 | 0.13 | 0.13 | 57 | 1017.7 |
| 20260510140039 | 15 | 12 | 1.6 | 9.7 | 0.00 | 0.13 | 0.13 | 61 | 1017.3 |
| 20260510134540 | 15 | 340 | 1.6 | 9.7 | 0.00 | 0.13 | 0.13 | 66 | 1017.2 |
| 20260510133018 | 14 | 330 | 1.6 | 11.3 | 0.00 | 0.13 | 0.13 | 68 | 1017.5 |
| 20260510131515 | 14 | 336 | 1.6 | 8.0 | 0.00 | 0.13 | 0.13 | 70 | 1017.2 |
| 20260510130056 | 13 | 326 | 3.2 | 9.7 | 0.00 | 0.13 | 0.13 | 72 | 1017.2 |
| 20260510124609 | 13 | 336 | 1.6 | 8.0 | 0.00 | 0.13 | 0.13 | 77 | 1017.2 |
| 20260510123035 | 13 | 329 | 0.0 | 6.4 | 0.00 | 0.13 | 0.13 | 81 | 1017.0 |
| 20260510121531 | 12 | 340 | 0.0 | 3.2 | 0.00 | 0.13 | 0.13 | 83 | 1016.4 |
| 20260510120010 | 12 | 355 | 0.0 | 3.2 | 0.00 | 0.13 | 0.13 | 87 | 1016.3 |
| 20260510114507 | 12 | 327 | 0.0 | 3.2 | 0.00 | 0.13 | 0.13 | 87 | 1016.1 |
| 20260510113049 | 12 | 337 | 0.0 | 1.6 | 0.00 | 0.13 | 0.13 | 86 | 1015.8 |
| 20260510111545 | 12 | 335 | 0.0 | 6.4 | 0.00 | 0.13 | 0.13 | 86 | 1015.5 |
| 20260510110033 | 12 | 335 | 0.0 | 3.2 | 0.00 | 0.13 | 0.13 | 88 | 1015.1 |
| 20260510104521 | 13 | 338 | 0.0 | 8.0 | 0.00 | 0.13 | 0.13 | 90 | 1014.7 |
| 20260510103001 | 13 | 332 | 0.0 | 3.2 | 0.00 | 0.13 | 0.13 | 91 | 1014.4 |
| 20260510101501 | 13 | 332 | 0.0 | 3.2 | 0.00 | 0.13 | 0.13 | 94 | 1014.3 |
| 20260510100040 | 13 | 339 | 0.0 | 3.2 | 0.00 | 0.13 | 0.13 | 96 | 1014.0 |
| 20260510094548 | 13 | 338 | 0.0 | 1.6 | 0.00 | 0.13 | 0.13 | 95 | 1013.9 |
| 20260510093018 | 13 | 338 | 0.0 | 3.2 | 0.00 | 0.13 | 0.13 | 95 | 1013.4 |
| 20260510091522 | 13 | 339 | 0.0 | 3.2 | 0.00 | 0.13 | 0.13 | 95 | 1013.7 |
| 20260510090059 | 13 | 339 | 0.0 | 3.2 | 0.00 | 0.13 | 0.13 | 95 | 1013.5 |
| 20260510084601 | 13 | 266 | 0.0 | 0.0 | 0.00 | 0.13 | 0.13 | 95 | 1013.4 |
| 20260510083043 | 14 | 266 | 0.0 | 1.6 | 0.00 | 0.13 | 0.13 | 95 | 1013.1 |
| 20260510081540 | 14 | 266 | 0.0 | 1.6 | 0.00 | 0.13 | 0.13 | 95 | 1012.9 |
| 20260510080037 | 14 | 266 | 1.6 | 3.2 | 0.00 | 0.13 | 0.13 | 95 | 1012.8 |
| 20260510074534 | 14 | 267 | 0.0 | 0.0 | 0.00 | 0.13 | 0.13 | 94 | 1012.4 |
| 20260510073041 | 15 | 267 | 0.0 | 0.0 | 0.03 | 0.13 | 0.13 | 94 | 1012.2 |
| 20260510071530 | 15 | 267 | 0.0 | 3.2 | 0.03 | 0.13 | 0.13 | 94 | 1012.4 |
| 20260510070131 | 15 | 260 | 1.6 | 6.4 | 0.05 | 0.13 | 0.13 | 93 | 1012.3 |
| 20260510064529 | 15 | 264 | 0.0 | 9.7 | 0.08 | 0.13 | 0.13 | 93 | 1012.2 |
| 20260510063010 | 15 | 35 | 1.6 | 8.0 | 0.08 | 0.10 | 0.10 | 93 | 1012.0 |
| 20260510061508 | 15 | 303 | 0.0 | 3.2 | 0.10 | 0.10 | 0.10 | 93 | 1012.1 |
| 20260510060049 | 15 | 322 | 0.0 | 3.2 | 0.08 | 0.08 | 0.08 | 93 | 1011.7 |
| 20260510054549 | 15 | 260 | 0.0 | 1.6 | 0.05 | 0.05 | 0.05 | 92 | 1011.4 |
| 20260510053048 | 15 | 260 | 0.0 | 1.6 | 0.03 | 0.03 | 0.03 | 91 | 1011.8 |
| 20260510051526 | 15 | 230 | 0.0 | 3.2 | 0.00 | 0.00 | 0.00 | 90 | 1010.7 |
| 20260510050005 | 16 | 326 | 0.0 | 0.0 | 0.00 | 0.00 | 0.00 | 89 | 1010.8 |
| 20260510044504 | 16 | 83 | 0.0 | 3.2 | 0.00 | 0.00 | 0.00 | 87 | 1010.9 |
| 20260510043058 | 16 | 338 | 0.0 | 1.6 | 0.00 | 0.00 | 0.00 | 85 | 1011.4 |
| 20260510041546 | 17 | 333 | 0.0 | 3.2 | 0.00 | 0.00 | 0.00 | 83 | 1011.3 |
| 20260510040036 | 17 | 316 | 0.0 | 6.4 | 0.00 | 0.00 | 0.00 | 81 | 1011.1 |
| 20260510034526 | 18 | 66 | 0.0 | 16.1 | 0.00 | 0.05 | 0.00 | 77 | 1010.7 |
| 20260510033007 | 18 | 342 | 3.2 | 16.1 | 0.00 | 0.05 | 0.00 | 74 | 1010.7 |
| 20260510031509 | 19 | 338 | 4.8 | 20.9 | 0.00 | 0.05 | 0.00 | 71 | 1010.6 |
| 20260510030048 | 17 | 314 | 11.3 | 29.0 | 0.00 | 0.05 | 0.00 | 75 | 1010.2 |
| 20260510024549 | 16 | 270 | 0.0 | 0.0 | 0.00 | 0.69 | 0.00 | 79 | 1008.7 |
| 20260510023027 | 17 | 270 | 0.0 | 0.0 | 0.00 | 0.69 | 0.00 | 77 | 1008.5 |
| 20260510021537 | 17 | 270 | 0.0 | 0.0 | 0.00 | 0.69 | 0.00 | 74 | 1008.2 |
| 20260510020009 | 17 | 270 | 0.0 | 1.6 | 0.00 | 0.69 | 0.00 | 70 | 1008.1 |
| 20260510014508 | 18 | 270 | 0.0 | 0.0 | 0.00 | 0.86 | 0.00 | 70 | 1007.8 |
| 20260510013107 | 18 | 270 | 0.0 | 0.0 | 0.00 | 0.86 | 0.00 | 65 | 1007.6 |
| 20260510011552 | 20 | 270 | 0.0 | 0.0 | 0.00 | 0.86 | 0.00 | 58 | 1007.6 |
| 20260510010049 | 22 | 270 | 0.0 | 0.0 | 0.00 | 0.86 | 0.00 | 52 | 1007.5 |
| 20260510004533 | 23 | 270 | 0.0 | 3.2 | 0.00 | 1.02 | 0.00 | 44 | 1007.3 |
| 20260510003030 | 24 | 271 | 1.6 | 6.4 | 0.00 | 1.02 | 0.00 | 41 | 1007.2 |
| 20260510001512 | 25 | 276 | 0.0 | 3.2 | 0.00 | 1.02 | 0.00 | 39 | 1007.1 |
| 20260510000011 | 25 | 264 | 0.0 | 8.0 | 0.00 | 1.02 | 0.00 | 39 | 1007.1 |
| 20260509234553 | 25 | 275 | 1.6 | 6.4 | 0.00 | 1.04 | 0.00 | 38 | 1007.1 |
| 20260509233055 | 26 | 263 | 0.0 | 12.9 | 0.00 | 1.04 | 0.00 | 40 | 1007.0 |
| 20260509231536 | 26 | 268 | 0.0 | 3.2 | 0.00 | 1.04 | 0.00 | 37 | 1007.0 |
| 20260509230035 | 26 | 300 | 0.0 | 8.0 | 0.00 | 1.04 | 0.00 | 35 | 1007.0 |
| 20260509224513 | 27 | 302 | 1.6 | 12.9 | 0.00 | 1.04 | 0.00 | 32 | 1006.9 |
| 20260509223012 | 27 | 71 | 6.4 | 19.3 | 0.00 | 1.04 | 0.00 | 33 | 1006.9 |
| 20260509221554 | 27 | 279 | 0.0 | 12.9 | 0.00 | 1.04 | 0.00 | 34 | 1007.0 |
| 20260509220052 | 27 | 253 | 4.8 | 20.9 | 0.00 | 1.04 | 0.00 | 35 | 1007.0 |
| 20260509214539 | 27 | 254 | 8.0 | 16.1 | 0.00 | 1.04 | 0.00 | 36 | 1007.0 |
| 20260509213034 | 26 | 308 | 4.8 | 22.5 | 0.00 | 1.04 | 0.00 | 37 | 1007.0 |
| 20260509211511 | 27 | 249 | 1.6 | 14.5 | 0.00 | 1.04 | 0.00 | 35 | 1007.1 |
| 20260509210010 | 27 | 283 | 0.0 | 14.5 | 0.00 | 1.04 | 0.00 | 41 | 1007.3 |
| 20260509204551 | 26 | 261 | 3.2 | 16.1 | 0.00 | 1.04 | 0.00 | 39 | 1007.5 |
| 20260509203100 | 27 | 248 | 6.4 | 14.5 | 0.00 | 1.04 | 0.00 | 37 | 1007.6 |
| 20260509201532 | 26 | 289 | 8.0 | 17.7 | 0.00 | 1.04 | 0.00 | 40 | 1007.7 |
| 20260509200029 | 27 | 273 | 0.0 | 16.1 | 0.00 | 1.04 | 0.00 | 44 | 1007.8 |
| 20260509194509 | 26 | 337 | 1.6 | 14.5 | 0.00 | 1.04 | 0.00 | 39 | 1007.9 |
| 20260509193016 | 26 | 317 | 4.8 | 16.1 | 0.00 | 1.04 | 0.00 | 42 | 1007.9 |
| 20260509191600 | 26 | 283 | 6.4 | 25.7 | 0.00 | 1.04 | 0.00 | 43 | 1008.0 |